Time;durP1;ratioP1;P1;durP2;ratioP2;P2;SDS_P1;SDS_P2;PMS_P1;PMS_P2;Temp;Humidity;BMP_temperature;BMP_pressure;BME280_temperature;BME280_humidity;BME280_pressure;Samples;Min_cycle;Max_cycle;Signal;HPM_P1;HPM_P2
2022/03/16 16:11:15;;;;;;;6.80;4.80;;;17.30;63.10;;;;;;2299156;62;30023;-73
2022/03/16 16:13:43;;;;;;;6.82;5.10;;;17.20;65.60;;;;;;2299322;62;30845;-76
2022/03/16 16:16:10;;;;;;;5.03;4.22;;;17.10;66.50;;;;;;2291622;62;30273;-74
2022/03/16 16:18:36;;;;;;;5.32;4.57;;;17.10;67.60;;;;;;2296096;62;31664;-77
2022/03/16 16:21:02;;;;;;;6.97;4.45;;;17.10;68.10;;;;;;2283682;62;30187;-73
2022/03/16 16:23:28;;;;;;;6.25;4.53;;;17.10;68.50;;;;;;2291444;62;30234;-73
2022/03/16 16:25:54;;;;;;;6.63;4.47;;;17.10;68.80;;;;;;2287033;62;30336;-73
2022/03/16 16:28:22;;;;;;;8.40;4.90;;;17.10;69.00;;;;;;2291154;62;31452;-75
2022/03/16 16:30:49;;;;;;;5.85;4.22;;;17.10;69.10;;;;;;2283879;62;30762;-73
2022/03/16 16:33:15;;;;;;;5.90;4.75;;;17.00;69.20;;;;;;2283537;62;30287;-73
2022/03/16 16:35:42;;;;;;;4.90;4.40;;;17.10;69.10;;;;;;2283420;62;30400;-75
2022/03/16 16:38:11;;;;;;;5.03;4.57;;;17.00;69.20;;;;;;2283574;62;30254;-75
2022/03/16 16:40:38;;;;;;;6.28;4.90;;;17.00;69.10;;;;;;2283402;62;32030;-76
2022/03/16 16:43:13;;;;;;;5.20;4.70;;;17.00;69.10;;;;;;2291263;62;30038;-77
2022/03/16 16:45:42;;;;;;;6.93;5.05;;;17.00;69.10;;;;;;2284257;62;30122;-76
2022/03/16 16:48:10;;;;;;;5.05;4.43;;;16.90;69.10;;;;;;2283846;62;31658;-77
2022/03/16 16:50:42;;;;;;;6.55;5.22;;;16.90;69.10;;;;;;2290945;62;30112;-76
2022/03/16 16:53:08;;;;;;;5.05;4.32;;;16.90;68.80;;;;;;2290837;62;30022;-76
2022/03/16 16:55:35;;;;;;;5.07;4.47;;;16.90;69.00;;;;;;2283724;62;30288;-75
2022/03/16 16:58:02;;;;;;;7.88;4.72;;;16.90;69.00;;;;;;2290287;62;31199;-75
2022/03/16 17:00:28;;;;;;;7.15;4.78;;;16.90;69.00;;;;;;2290174;62;30252;-74
2022/03/16 17:02:55;;;;;;;6.13;4.80;;;16.80;68.80;;;;;;2290554;62;30211;-75
2022/03/16 17:05:27;;;;;;;6.53;4.60;;;16.80;68.80;;;;;;2283608;62;30082;-75
2022/03/16 17:08:01;;;;;;;14.85;4.78;;;16.80;68.70;;;;;;2289605;62;30248;-75
2022/03/16 17:10:28;;;;;;;5.88;4.43;;;16.80;68.40;;;;;;2290643;62;32021;-79
2022/03/16 17:12:54;;;;;;;4.60;4.20;;;16.70;68.70;;;;;;2290095;62;30117;-74
2022/03/16 17:15:22;;;;;;;4.95;4.38;;;16.70;68.70;;;;;;2283288;62;30074;-72
2022/03/16 17:17:51;;;;;;;9.05;4.95;;;16.70;68.70;;;;;;2290521;62;30083;-70
2022/03/16 17:20:22;;;;;;;7.32;5.32;;;16.70;68.70;;;;;;2290937;62;30122;-72
2022/03/16 17:22:51;;;;;;;5.57;5.05;;;16.70;68.60;;;;;;2278054;62;30153;-71
2022/03/16 17:25:26;;;;;;;5.45;4.68;;;16.70;68.60;;;;;;2284849;62;30005;-72
2022/03/16 17:27:54;;;;;;;8.98;5.15;;;16.70;68.10;;;;;;2284567;62;30029;-71
2022/03/16 17:30:20;;;;;;;8.30;4.70;;;16.70;68.50;;;;;;2285357;62;30538;-72
2022/03/16 17:32:48;;;;;;;8.25;5.00;;;16.60;68.50;;;;;;2285387;62;30031;-72
2022/03/16 17:35:15;;;;;;;5.90;4.40;;;16.60;68.50;;;;;;2285152;62;30382;-73
2022/03/16 17:37:41;;;;;;;9.38;4.88;;;16.60;68.40;;;;;;2284749;62;30835;-70
2022/03/16 17:40:11;;;;;;;4.40;4.03;;;16.60;68.40;;;;;;2285258;62;30698;-71
2022/03/16 17:45:33;;;;;;;6.80;4.03;;;16.70;68.60;;;;;;2286779;62;30135;-69
2022/03/16 17:48:11;;;;;;;8.32;3.90;;;16.70;68.40;;;;;;2286523;62;31916;-69
2022/03/16 17:50:40;;;;;;;4.80;3.85;;;16.80;68.30;;;;;;2293135;62;31614;-69
2022/03/16 17:53:09;;;;;;;5.95;3.50;;;16.80;68.10;;;;;;2292669;62;30244;-69
2022/03/16 17:58:22;;;;;;;6.45;3.78;;;16.90;68.00;;;;;;2284666;62;30338;-69
2022/03/16 18:00:48;;;;;;;4.63;3.88;;;16.90;68.00;;;;;;2277765;62;30480;-69
2022/03/16 18:03:14;;;;;;;3.30;3.00;;;16.90;67.80;;;;;;2284323;62;30265;-70
2022/03/16 18:05:41;;;;;;;4.55;3.72;;;16.90;67.80;;;;;;2285240;62;30128;-70
2022/03/16 18:08:10;;;;;;;5.57;3.60;;;16.90;67.90;;;;;;2277806;62;30029;-70
2022/03/16 18:13:23;;;;;;;8.15;3.33;;;16.90;67.90;;;;;;2284390;62;29987;-69
2022/03/16 18:15:51;;;;;;;4.55;2.90;;;16.90;67.80;;;;;;2285191;62;29951;-71
2022/03/16 18:18:18;;;;;;;2.97;2.78;;;16.90;67.80;;;;;;2284248;62;30247;-69
2022/03/16 18:20:45;;;;;;;7.05;3.25;;;17.00;67.80;;;;;;2284672;62;30048;-70
2022/03/16 18:23:11;;;;;;;3.90;3.10;;;17.00;67.70;;;;;;2284690;62;30219;-69
2022/03/16 18:25:37;;;;;;;3.35;3.00;;;17.00;67.50;;;;;;2284771;62;29976;-69
2022/03/16 18:28:03;;;;;;;3.90;3.30;;;17.00;67.50;;;;;;2285212;62;30479;-69
2022/03/16 18:30:28;;;;;;;3.60;2.80;;;17.00;67.50;;;;;;2284467;62;30614;-70
2022/03/16 18:32:54;;;;;;;3.50;3.20;;;17.00;67.60;;;;;;2284401;62;30010;-69
2022/03/16 18:35:23;;;;;;;3.33;3.03;;;16.90;67.70;;;;;;2278770;62;30087;-70
2022/03/16 18:37:49;;;;;;;3.95;2.90;;;16.90;67.60;;;;;;2285391;62;31424;-70
2022/03/16 18:40:16;;;;;;;2.63;2.40;;;17.00;67.60;;;;;;2284999;62;30073;-73
2022/03/16 18:42:43;;;;;;;3.33;2.65;;;17.00;67.60;;;;;;2284382;62;30123;-71
2022/03/16 18:45:11;;;;;;;5.10;2.83;;;17.00;67.60;;;;;;2284746;62;30026;-71
2022/03/16 18:47:37;;;;;;;3.35;2.70;;;17.00;67.50;;;;;;2271055;62;29983;-71
2022/03/16 18:50:04;;;;;;;2.80;2.50;;;17.00;67.50;;;;;;2277539;62;31730;-71
2022/03/16 18:52:31;;;;;;;3.47;2.78;;;17.00;67.70;;;;;;2277576;62;30059;-71
2022/03/16 18:54:57;;;;;;;2.63;2.40;;;17.00;67.70;;;;;;2270960;62;30036;-71
2022/03/16 18:57:28;;;;;;;3.97;2.90;;;17.00;67.70;;;;;;2277560;62;29956;-70
2022/03/16 18:59:54;;;;;;;3.47;2.28;;;17.00;67.60;;;;;;2285216;62;30154;-72
2022/03/16 19:02:20;;;;;;;3.67;2.50;;;17.00;68.30;;;;;;2284925;62;30044;-72
2022/03/16 19:04:46;;;;;;;8.50;2.80;;;17.00;67.50;;;;;;2284901;62;30350;-72
2022/03/16 19:07:12;;;;;;;2.53;2.30;;;17.00;67.60;;;;;;2270427;62;30100;-72
2022/03/16 19:09:38;;;;;;;3.70;2.40;;;17.00;67.50;;;;;;2277440;62;30191;-72
2022/03/16 19:14:50;;;;;;;4.07;2.20;;;17.00;67.50;;;;;;2278210;62;30223;-68
2022/03/16 19:17:17;;;;;;;4.28;2.67;;;17.00;67.30;;;;;;2277357;62;31012;-73
2022/03/16 19:19:44;;;;;;;6.40;2.72;;;17.00;67.20;;;;;;2277403;62;30048;-68
2022/03/16 19:22:13;;;;;;;5.32;2.60;;;17.10;68.00;;;;;;2277158;62;30150;-68
2022/03/16 19:24:40;;;;;;;3.45;2.60;;;17.10;67.90;;;;;;2270953;62;30165;-68
2022/03/16 19:27:07;;;;;;;5.00;2.60;;;17.20;67.00;;;;;;2277292;62;30903;-69
2022/03/16 19:29:34;;;;;;;3.58;2.70;;;17.20;67.00;;;;;;2277202;62;30101;-69
2022/03/16 19:32:01;;;;;;;4.85;2.63;;;17.30;67.00;;;;;;2270467;62;30129;-68
2022/03/16 19:34:28;;;;;;;6.03;2.60;;;17.30;66.90;;;;;;2292276;62;29974;-68
2022/03/16 19:36:55;;;;;;;3.90;2.03;;;17.40;66.90;;;;;;2292946;62;31926;-67
2022/03/16 19:39:21;;;;;;;2.72;2.20;;;17.40;66.80;;;;;;2285578;62;30103;-68
2022/03/16 19:41:47;;;;;;;2.42;2.22;;;17.40;66.70;;;;;;2278168;62;30523;-68
2022/03/16 19:44:13;;;;;;;2.78;2.35;;;17.50;66.70;;;;;;2292701;62;29977;-67
2022/03/16 19:46:41;;;;;;;2.80;2.20;;;17.50;66.60;;;;;;2292771;62;30246;-67
2022/03/16 19:49:07;;;;;;;2.70;2.50;;;17.50;66.60;;;;;;2285298;62;30635;-69
2022/03/16 19:51:33;;;;;;;2.67;2.42;;;17.50;66.70;;;;;;2292891;62;30168;-69
2022/03/16 19:53:59;;;;;;;2.75;2.10;;;17.60;66.60;;;;;;2292944;62;30040;-69
2022/03/16 19:56:26;;;;;;;5.57;2.45;;;17.60;66.60;;;;;;2285088;62;30995;-69
2022/03/16 19:58:52;;;;;;;2.58;2.30;;;17.60;66.70;;;;;;2292933;62;30477;-69
2022/03/16 20:01:18;;;;;;;3.17;2.10;;;17.60;66.60;;;;;;2292941;62;30079;-69
2022/03/16 20:03:44;;;;;;;2.60;2.40;;;17.60;66.50;;;;;;2285369;62;30329;-68
2022/03/16 20:06:11;;;;;;;3.15;2.15;;;17.70;66.60;;;;;;2292863;62;31164;-68
2022/03/16 20:08:37;;;;;;;2.40;2.30;;;17.70;66.60;;;;;;2292933;62;30000;-69
2022/03/16 20:11:03;;;;;;;2.75;2.55;;;17.70;66.60;;;;;;2285208;62;30176;-68
2022/03/16 20:13:29;;;;;;;2.40;2.03;;;17.70;66.60;;;;;;2285493;62;30233;-68
2022/03/16 20:15:55;;;;;;;2.72;2.50;;;17.70;66.50;;;;;;2292487;62;30349;-75
2022/03/16 20:18:23;;;;;;;2.30;2.00;;;17.70;66.50;;;;;;2292618;62;30674;-76
2022/03/16 20:20:54;;;;;;;2.92;2.40;;;17.70;66.50;;;;;;2285422;62;30042;-76
2022/03/16 20:23:20;;;;;;;2.83;2.00;;;17.70;66.50;;;;;;2292805;62;30367;-76
2022/03/16 20:25:47;;;;;;;2.55;2.38;;;17.70;66.60;;;;;;2292109;62;30574;-75
2022/03/16 20:28:13;;;;;;;14.48;3.15;;;17.70;66.70;;;;;;2291918;62;31655;-74
2022/03/16 20:30:40;;;;;;;7.45;3.15;;;17.70;66.60;;;;;;2284969;62;30193;-73
2022/03/16 20:33:08;;;;;;;2.58;2.35;;;17.70;66.60;;;;;;2289389;62;30063;-74
2022/03/16 20:35:34;;;;;;;3.15;2.55;;;17.70;66.70;;;;;;2284151;62;29981;-73
2022/03/16 20:38:00;;;;;;;2.80;2.50;;;17.60;66.60;;;;;;2283352;62;30221;-73
2022/03/16 20:40:26;;;;;;;2.72;2.47;;;17.60;66.50;;;;;;2283777;62;30390;-73
2022/03/16 20:42:52;;;;;;;2.88;2.35;;;17.60;66.50;;;;;;2276894;62;30286;-73
2022/03/16 20:45:18;;;;;;;3.67;2.50;;;17.70;66.50;;;;;;2283603;62;30680;-74
2022/03/16 20:47:45;;;;;;;4.45;2.92;;;17.70;66.50;;;;;;2284262;62;30661;-75
2022/03/16 20:50:11;;;;;;;2.92;2.65;;;17.70;66.60;;;;;;2283709;62;30037;-74
2022/03/16 20:52:37;;;;;;;3.22;2.60;;;17.70;66.50;;;;;;2283963;62;30486;-73
2022/03/16 20:55:07;;;;;;;3.53;2.80;;;17.60;66.50;;;;;;2284323;62;31902;-72
2022/03/16 20:57:33;;;;;;;2.45;2.25;;;17.60;66.40;;;;;;2277921;62;29986;-72
2022/03/16 21:02:45;;;;;;;2.78;2.50;;;17.60;66.50;;;;;;2279261;62;30091;-73
2022/03/16 21:05:13;;;;;;;5.35;3.45;;;17.60;66.40;;;;;;2284979;62;30786;-72
2022/03/16 21:07:44;;;;;;;3.15;2.70;;;17.70;66.50;;;;;;2277988;62;30755;-74
2022/03/16 21:10:13;;;;;;;3.13;2.83;;;17.60;66.40;;;;;;2285537;62;30378;-73
2022/03/16 21:12:39;;;;;;;3.15;2.58;;;17.60;66.40;;;;;;2285460;62;30063;-74
2022/03/16 21:15:12;;;;;;;4.18;2.67;;;17.60;66.50;;;;;;2285482;62;30844;-72
2022/03/16 21:17:38;;;;;;;4.30;2.80;;;17.50;66.60;;;;;;2284901;62;30039;-73
2022/03/16 21:20:10;;;;;;;3.95;2.97;;;17.60;66.60;;;;;;2285242;62;30036;-73
2022/03/16 21:22:39;;;;;;;2.67;2.47;;;17.50;66.50;;;;;;2285517;62;30166;-73
2022/03/16 21:25:07;;;;;;;3.05;2.78;;;17.60;66.40;;;;;;2279387;62;30050;-73
2022/03/16 21:27:38;;;;;;;3.03;2.78;;;17.60;66.50;;;;;;2286183;62;30660;-74
2022/03/16 21:30:09;;;;;;;4.70;2.92;;;17.50;66.50;;;;;;2293108;62;30228;-74
2022/03/16 21:32:36;;;;;;;3.63;2.75;;;17.60;66.50;;;;;;2286490;62;30252;-74
2022/03/16 21:35:03;;;;;;;3.58;2.90;;;17.50;66.60;;;;;;2293407;62;31363;-72
2022/03/16 21:37:29;;;;;;;3.30;2.47;;;17.50;66.60;;;;;;2286162;62;30797;-73
2022/03/16 21:42:46;;;;;;;3.10;2.80;;;17.50;66.50;;;;;;2293391;62;30056;-74
2022/03/16 21:47:54;;;;;;;5.80;3.80;;;17.60;66.20;;;;;;2293417;62;30573;-73
2022/03/16 21:50:33;;;;;;;3.55;2.83;;;17.60;66.40;;;;;;2286190;62;30200;-73
2022/03/16 21:52:59;;;;;;;3.33;3.00;;;17.60;66.40;;;;;;2280755;62;30345;-74
2022/03/16 21:55:25;;;;;;;4.63;3.40;;;17.60;66.40;;;;;;2278996;62;30015;-74
2022/03/16 21:57:51;;;;;;;3.53;2.85;;;17.50;66.50;;;;;;2277516;62;30222;-74
2022/03/16 22:00:36;;;;;;;5.72;3.75;;;17.50;66.60;;;;;;2285319;62;30058;-69
2022/03/16 22:03:10;;;;;;;3.95;3.08;;;17.50;66.60;;;;;;2284969;62;29998;-71
2022/03/16 22:05:43;;;;;;;4.07;3.70;;;17.50;66.50;;;;;;2277933;62;30974;-72
2022/03/16 22:08:11;;;;;;;4.10;3.70;;;17.60;66.60;;;;;;2285045;62;30775;-75
2022/03/16 22:10:41;;;;;;;3.40;3.10;;;17.60;66.50;;;;;;2284673;62;30199;-73
2022/03/16 22:13:07;;;;;;;3.38;2.90;;;17.50;66.40;;;;;;2285013;62;30261;-73
2022/03/16 22:15:33;;;;;;;5.05;3.38;;;17.50;66.60;;;;;;2277461;62;30797;-73
2022/03/16 22:17:59;;;;;;;4.25;3.63;;;17.50;66.70;;;;;;2277239;62;30168;-74
2022/03/16 22:21:21;;;;;;;3.50;3.05;;;17.50;66.70;;;;;;2277756;62;30147;-74
2022/03/16 22:23:13;;;;;;;4.22;3.55;;;17.50;66.60;;;;;;2284958;62;30546;-75
2022/03/16 22:25:39;;;;;;;3.83;3.28;;;17.50;66.70;;;;;;2285016;62;30012;-74
2022/03/16 22:28:05;;;;;;;3.65;3.33;;;17.50;66.60;;;;;;2284470;62;30019;-74
2022/03/16 22:30:32;;;;;;;3.65;3.28;;;17.50;66.60;;;;;;2290157;62;30143;-74
2022/03/16 22:33:00;;;;;;;10.55;3.22;;;17.50;66.70;;;;;;2293009;62;30428;-74
2022/03/16 22:35:26;;;;;;;3.83;3.50;;;17.50;66.70;;;;;;2293276;62;30798;-73
2022/03/16 22:37:52;;;;;;;5.00;4.03;;;17.40;66.80;;;;;;2285417;62;30421;-74
2022/03/16 22:40:18;;;;;;;4.57;3.53;;;17.40;66.70;;;;;;2293235;62;30049;-75
2022/03/16 22:42:43;;;;;;;5.03;3.70;;;17.40;66.80;;;;;;2293320;62;30760;-75
2022/03/16 22:45:09;;;;;;;3.90;3.53;;;17.40;66.90;;;;;;2293112;62;30061;-75
2022/03/16 22:47:35;;;;;;;3.60;3.30;;;17.40;66.80;;;;;;2293078;62;31739;-74
2022/03/16 22:50:01;;;;;;;3.90;3.50;;;17.50;66.80;;;;;;2292917;62;30106;-73
2022/03/16 22:52:27;;;;;;;3.92;3.53;;;17.50;67.00;;;;;;2284794;62;30083;-73
2022/03/16 22:54:54;;;;;;;6.03;3.83;;;17.50;66.90;;;;;;2293067;62;30218;-75
2022/03/16 22:57:20;;;;;;;4.15;3.70;;;17.50;66.70;;;;;;2293171;62;31992;-76
2022/03/16 22:59:46;;;;;;;5.20;3.58;;;17.50;66.60;;;;;;2292973;62;30235;-74
2022/03/16 23:02:12;;;;;;;3.72;3.33;;;17.50;66.60;;;;;;2293288;62;30119;-75
2022/03/16 23:04:38;;;;;;;5.18;4.30;;;17.40;66.60;;;;;;2293154;62;30183;-75
2022/03/16 23:07:05;;;;;;;4.90;4.00;;;17.40;66.70;;;;;;2292922;62;30423;-73
2022/03/16 23:09:31;;;;;;;4.07;3.67;;;17.40;66.70;;;;;;2292970;62;29999;-75
2022/03/16 23:11:57;;;;;;;4.00;3.70;;;17.40;66.90;;;;;;2293091;62;30192;-73
2022/03/16 23:14:23;;;;;;;4.13;3.72;;;17.40;66.90;;;;;;2292827;62;30748;-73
2022/03/16 23:16:49;;;;;;;3.75;3.45;;;17.40;66.80;;;;;;2292409;62;30570;-73
2022/03/16 23:19:15;;;;;;;5.68;4.30;;;17.40;66.80;;;;;;2292351;62;30106;-72
2022/03/16 23:21:42;;;;;;;4.30;3.90;;;17.40;66.90;;;;;;2292919;62;30176;-73
2022/03/16 23:24:08;;;;;;;6.57;3.80;;;17.40;66.90;;;;;;2292857;62;30190;-76
2022/03/16 23:26:34;;;;;;;5.85;4.10;;;17.40;66.80;;;;;;2292028;62;29981;-78
